Terminal Aerodrome Forecast
Issued by NWS

Home | Current Version | Previous Version | Text Only | Print | Product List | Glossary On
Versions: 1 2 3 4 5 6 7 8 9 10 11 12 13 14 15 16 17 18 19
000
FTUS43 KMPX 061528 AAC
TAFRWF
TAF AMD
KRWF 061528Z 0615/0712 13013KT 3SM BR OVC005
     FM061800 14014G21KT 5SM BR SCT009 OVC015
     FM062000 15017G28KT P6SM SCT025 BKN040
     FM062100 15017G25KT 5SM -SHRA SCT020 BKN035
      TEMPO 0621/0624 2SM TSRA BKN025 OVC040CB
     FM070100 15012G19KT P6SM BKN040=

USA.gov is the U.S. government's official web portal to all federal, state and local government web resources and services.